createdAt,value
2022-08-14T00:03:21.063Z,61.86
2022-08-14T00:08:43.506Z,61.51
2022-08-14T00:13:52.733Z,61.93
2022-08-14T00:19:06.514Z,61.98
2022-08-14T00:24:28.455Z,61.99
2022-08-14T00:29:40.588Z,61.84
2022-08-14T00:34:47.022Z,61.88
2022-08-14T00:39:51.281Z,62.05
2022-08-14T00:44:56.597Z,62.20
2022-08-14T00:50:00.093Z,62.42
2022-08-14T00:55:04.144Z,62.29
2022-08-14T01:00:34.089Z,62.60
2022-08-14T01:05:50.901Z,62.84
2022-08-14T01:10:56.422Z,62.86
2022-08-14T01:16:03.877Z,62.87
2022-08-14T01:21:09.346Z,63.05
2022-08-14T01:26:34.835Z,62.91
2022-08-14T01:31:44.403Z,62.96
2022-08-14T01:36:54.234Z,63.05
2022-08-14T01:42:01.149Z,63.06
2022-08-14T01:47:21.738Z,62.87
2022-08-14T01:52:34.291Z,62.60
2022-08-14T01:58:19.014Z,62.32
2022-08-14T02:03:14.025Z,62.57
2022-08-14T02:08:22.410Z,62.25
2022-08-14T02:13:40.235Z,62.58
2022-08-14T02:18:47.453Z,62.62
2022-08-14T02:23:55.309Z,62.80
2022-08-14T02:29:05.707Z,62.74
2022-08-14T02:34:20.142Z,62.72
2022-08-14T02:39:31.355Z,62.58
2022-08-14T02:44:39.798Z,62.62
2022-08-14T02:49:43.538Z,62.44
2022-08-14T02:54:47.056Z,61.92
2022-08-14T02:59:53.979Z,61.84
2022-08-14T03:04:57.678Z,61.29
2022-08-14T03:10:25.508Z,61.03
2022-08-14T03:15:26.911Z,60.85
2022-08-14T03:20:31.407Z,60.12
2022-08-14T03:25:37.287Z,59.25
2022-08-14T03:30:42.745Z,59.64
2022-08-14T03:35:59.802Z,59.45
2022-08-14T03:41:14.472Z,58.90
2022-08-14T03:46:39.121Z,58.66
2022-08-14T03:51:45.770Z,56.47
2022-08-14T03:56:50.554Z,45.70
2022-08-14T04:02:01.743Z,37.13
2022-08-14T04:07:05.922Z,32.80
2022-08-14T04:12:13.462Z,29.59
2022-08-14T04:17:18.385Z,26.71
2022-08-14T04:22:22.566Z,24.67
2022-08-14T04:27:27.231Z,23.09
2022-08-14T04:33:01.075Z,21.83
2022-08-14T04:38:37.195Z,19.90
2022-08-14T04:43:40.211Z,19.98
2022-08-14T04:48:51.367Z,18.38
2022-08-14T04:54:00.250Z,16.99
2022-08-14T04:59:10.561Z,16.22
2022-08-14T05:04:16.298Z,16.62
2022-08-14T05:09:24.098Z,14.85
2022-08-14T05:14:45.928Z,14.39
2022-08-14T05:21:04.183Z,14.98
2022-08-14T05:25:15.382Z,15.21
2022-08-14T05:30:19.763Z,13.22
2022-08-14T05:35:24.474Z,12.99
2022-08-14T05:40:28.197Z,12.58
2022-08-14T05:45:31.547Z,12.80
2022-08-14T05:50:38.613Z,11.97
2022-08-14T05:55:44.953Z,12.04
2022-08-14T06:00:49.904Z,12.24
2022-08-14T06:05:56.204Z,12.72
2022-08-14T06:11:03.711Z,11.25
2022-08-14T06:16:07.546Z,9.80
2022-08-14T06:21:15.883Z,10.10
2022-08-14T06:26:22.169Z,10.78
2022-08-14T06:31:26.011Z,11.03
2022-08-14T06:36:30.759Z,10.79
2022-08-14T06:41:57.047Z,9.76
2022-08-14T06:46:57.494Z,10.52
2022-08-14T06:52:03.247Z,10.00
2022-08-14T06:57:08.845Z,8.98
2022-08-14T07:02:30.268Z,10.14
2022-08-14T07:07:39.439Z,9.87
2022-08-14T07:13:00.900Z,9.49
2022-08-14T07:18:08.812Z,8.30
2022-08-14T07:23:20.623Z,8.90
2022-08-14T07:28:27.215Z,8.76
2022-08-14T07:33:33.489Z,7.73
2022-08-14T07:38:41.158Z,8.04
2022-08-14T07:43:52.942Z,8.21
2022-08-14T07:49:00.101Z,8.62
2022-08-14T07:54:11.047Z,9.62
2022-08-14T07:59:16.516Z,9.69
2022-08-14T08:04:27.631Z,9.46
2022-08-14T08:09:36.189Z,9.43
2022-08-14T08:14:56.081Z,9.77
2022-08-14T08:20:04.781Z,9.87
2022-08-14T08:25:13.764Z,10.61
2022-08-14T08:30:17.589Z,11.56
2022-08-14T08:35:23.598Z,13.15
2022-08-14T08:40:32.426Z,14.29
2022-08-14T08:45:37.606Z,15.85
2022-08-14T08:55:46.387Z,16.43
2022-08-14T09:00:54.282Z,16.01
2022-08-14T09:05:59.659Z,17.01
2022-08-14T09:11:19.678Z,17.31
2022-08-14T09:16:26.349Z,17.45
2022-08-14T09:21:31.257Z,18.46
2022-08-14T09:26:37.406Z,18.03
2022-08-14T09:31:52.767Z,18.74
2022-08-14T09:37:17.213Z,20.14
2022-08-14T09:42:36.840Z,19.41
2022-08-14T09:47:51.950Z,20.09
2022-08-14T09:52:58.495Z,19.64
2022-08-14T09:58:19.961Z,20.41
2022-08-14T10:03:33.272Z,21.11
2022-08-14T10:08:50.959Z,21.00
2022-08-14T10:14:06.508Z,22.71
2022-08-14T10:19:13.621Z,21.51
2022-08-14T10:24:36.371Z,20.61
2022-08-14T10:29:45.133Z,21.35
2022-08-14T10:34:52.769Z,21.02
2022-08-14T10:40:10.480Z,20.73
2022-08-14T10:45:33.872Z,21.32
2022-08-14T10:50:46.578Z,21.15
2022-08-14T10:55:50.429Z,21.30
2022-08-14T11:01:00.718Z,21.51
2022-08-14T11:06:18.343Z,22.26
2022-08-14T11:11:23.110Z,22.71
2022-08-14T11:16:29.568Z,23.60
2022-08-14T11:21:34.456Z,23.80
2022-08-14T11:26:45.251Z,23.53
2022-08-14T11:31:51.957Z,24.74
2022-08-14T11:37:09.667Z,25.84
2022-08-14T11:43:07.985Z,25.42
2022-08-14T11:48:12.901Z,25.22
2022-08-14T11:53:22.906Z,25.33
2022-08-14T11:58:29.703Z,25.14
2022-08-14T12:03:51.300Z,24.23
2022-08-14T12:09:00.051Z,24.30
2022-08-14T12:14:13.439Z,23.79
2022-08-14T12:19:46.014Z,23.96
2022-08-14T12:24:54.994Z,23.44
2022-08-14T12:30:00.174Z,24.36
2022-08-14T12:35:05.561Z,25.82
2022-08-14T12:40:14.050Z,26.35
2022-08-14T12:45:20.533Z,27.15
2022-08-14T12:50:36.911Z,27.48
2022-08-14T12:56:21.286Z,27.95
2022-08-14T13:01:20.624Z,28.36
2022-08-14T13:06:28.983Z,28.01
2022-08-14T13:11:41.050Z,27.87
2022-08-14T13:16:50.464Z,27.23
2022-08-14T13:21:58.483Z,26.46
2022-08-14T13:27:12.126Z,25.11
2022-08-14T13:32:16.500Z,25.01
2022-08-14T13:37:22.862Z,25.04
2022-08-14T13:42:30.694Z,25.67
2022-08-14T13:47:36.018Z,24.96
2022-08-14T13:52:59.035Z,24.63
2022-08-14T13:58:05.206Z,24.50
2022-08-14T14:03:10.495Z,24.82
2022-08-14T14:08:43.726Z,27.14
2022-08-14T14:13:44.619Z,26.75
2022-08-14T14:18:51.321Z,27.48
2022-08-14T14:23:58.156Z,29.19
2022-08-14T14:29:03.837Z,29.36
2022-08-14T14:34:29.199Z,29.77
2022-08-14T14:39:37.968Z,30.17
2022-08-14T14:45:06.143Z,30.45
2022-08-14T14:50:13.333Z,31.04
2022-08-14T14:55:19.881Z,31.40
2022-08-14T15:00:23.709Z,32.11
2022-08-14T15:05:28.432Z,32.42
2022-08-14T15:10:37.843Z,32.20
2022-08-14T15:15:44.195Z,32.43
2022-08-14T15:20:47.713Z,32.37
2022-08-14T15:25:56.457Z,32.88
2022-08-14T15:30:59.798Z,33.10
2022-08-14T15:36:04.517Z,33.00
2022-08-14T15:41:21.857Z,34.66
2022-08-14T15:46:43.098Z,34.65
2022-08-14T15:51:50.883Z,35.21
2022-08-14T15:57:00.216Z,36.20
2022-08-14T16:02:04.382Z,36.37
2022-08-14T16:07:08.970Z,37.79
2022-08-14T16:12:14.828Z,38.62
2022-08-14T16:17:20.276Z,38.17
2022-08-14T16:22:57.394Z,37.46
2022-08-14T16:27:52.134Z,37.25
2022-08-14T16:32:57.630Z,39.17
2022-08-14T16:38:19.310Z,39.80
2022-08-14T16:43:27.351Z,40.17
2022-08-14T16:48:57.577Z,41.66
2022-08-14T16:53:55.851Z,41.84
2022-08-14T16:59:12.137Z,42.28
2022-08-14T17:04:25.311Z,44.06
2022-08-14T17:09:36.171Z,44.90
2022-08-14T17:14:54.228Z,46.18
2022-08-14T17:20:33.932Z,46.00
2022-08-14T17:25:30.039Z,47.06
2022-08-14T17:30:49.568Z,47.92
2022-08-14T17:36:10.619Z,47.98
2022-08-14T17:41:32.642Z,49.18
2022-08-14T17:46:43.919Z,50.07
2022-08-14T17:52:01.751Z,50.08
2022-08-14T17:57:10.549Z,50.20
2022-08-14T18:02:22.714Z,48.34
2022-08-14T18:07:59.483Z,49.93
2022-08-14T18:13:02.010Z,50.16
2022-08-14T18:18:09.168Z,50.36
2022-08-14T18:23:13.131Z,51.09
2022-08-14T18:28:46.584Z,51.39
2022-08-14T18:33:53.542Z,50.73
2022-08-14T18:39:25.814Z,51.29
2022-08-14T18:45:12.864Z,51.75
2022-08-14T18:50:27.810Z,51.96
2022-08-14T18:55:54.028Z,52.05
2022-08-14T19:01:01.064Z,52.58
2022-08-14T19:06:07.716Z,53.12
2022-08-14T19:11:51.680Z,52.93
2022-08-14T19:16:55.617Z,53.50
2022-08-14T19:22:02.020Z,53.98
2022-08-14T19:27:19.421Z,53.70
2022-08-14T19:32:40.874Z,53.76
2022-08-14T19:37:52.034Z,53.85
2022-08-14T19:42:59.302Z,53.84
2022-08-14T19:48:03.441Z,53.92
2022-08-14T19:53:11.966Z,53.91
2022-08-14T19:58:28.008Z,53.45
2022-08-14T20:03:59.348Z,53.09
2022-08-14T20:11:07.228Z,53.85
2022-08-14T20:14:31.363Z,53.63
2022-08-14T20:19:37.848Z,53.71
2022-08-14T20:24:47.567Z,53.81
2022-08-14T20:30:29.738Z,53.86
2022-08-14T20:35:36.343Z,53.79
2022-08-14T20:40:50.575Z,54.28
2022-08-14T20:45:54.084Z,54.40
2022-08-14T20:50:58.586Z,54.32
2022-08-14T20:56:28.943Z,54.45
2022-08-14T21:01:36.521Z,54.48
2022-08-14T21:07:23.468Z,54.53
2022-08-14T21:12:06.814Z,54.74
2022-08-14T21:17:32.204Z,54.96
2022-08-14T21:22:45.125Z,54.92
2022-08-14T21:27:56.721Z,55.11
2022-08-14T21:33:02.519Z,55.23
2022-08-14T21:38:11.686Z,55.08
2022-08-14T21:43:24.042Z,55.45
2022-08-14T21:48:31.999Z,55.27
2022-08-14T21:53:36.759Z,55.39
2022-08-14T21:59:04.555Z,55.76
2022-08-14T22:04:33.817Z,55.76
2022-08-14T22:09:36.638Z,56.13
2022-08-14T22:14:43.819Z,56.35
2022-08-14T22:19:55.068Z,56.00
2022-08-14T22:25:00.945Z,56.36
2022-08-14T22:30:08.205Z,55.44
2022-08-14T22:35:17.838Z,56.90
2022-08-14T22:41:04.120Z,57.22
2022-08-14T22:45:55.645Z,57.56
2022-08-14T22:51:01.361Z,57.83
2022-08-14T22:56:05.385Z,57.69
2022-08-14T23:01:55.055Z,57.19
2022-08-14T23:07:04.808Z,57.56
2022-08-14T23:12:27.536Z,57.80
2022-08-14T23:17:38.614Z,57.84
2022-08-14T23:22:45.671Z,57.99
2022-08-14T23:28:02.719Z,58.02
2022-08-14T23:33:07.138Z,58.18
2022-08-14T23:38:13.251Z,58.34
2022-08-14T23:43:34.414Z,58.44
2022-08-14T23:48:40.423Z,58.48
2022-08-14T23:53:53.191Z,58.68
2022-08-14T23:58:57.227Z,58.96
